createdAt,value
2024-02-16T00:02:09.259Z,3.28
2024-02-16T00:05:12.956Z,3.80
2024-02-16T00:08:14.763Z,3.90
2024-02-16T00:11:16.486Z,3.45
2024-02-16T00:14:18.168Z,3.78
2024-02-16T00:17:19.780Z,3.05
2024-02-16T00:20:23.634Z,2.58
2024-02-16T00:23:26.361Z,4.10
2024-02-16T00:26:27.995Z,3.03
2024-02-16T00:29:29.650Z,2.88
2024-02-16T00:32:32.022Z,2.95
2024-02-16T00:35:34.339Z,2.83
2024-02-16T00:38:35.974Z,3.28
2024-02-16T00:41:37.636Z,3.28
2024-02-16T00:44:40.023Z,3.20
2024-02-16T00:47:41.716Z,2.83
2024-02-16T00:50:44.448Z,3.45
2024-02-16T00:53:46.402Z,3.20
2024-02-16T00:56:48.384Z,3.20
2024-02-16T00:59:50.119Z,2.97
2024-02-16T01:02:53.670Z,3.03
2024-02-16T01:05:55.485Z,3.40
2024-02-16T01:08:57.781Z,3.53
2024-02-16T01:11:59.402Z,2.95
2024-02-16T01:15:01.239Z,2.45
2024-02-16T01:18:02.996Z,4.18
2024-02-16T01:21:05.027Z,3.05
2024-02-16T01:24:07.395Z,3.30
2024-02-16T01:27:09.218Z,3.10
2024-02-16T01:30:11.675Z,3.13
2024-02-16T01:33:13.502Z,2.88
2024-02-16T01:36:15.180Z,2.90
2024-02-16T01:39:16.821Z,3.40
2024-02-16T01:42:18.468Z,2.95
2024-02-16T01:45:20.266Z,3.13
2024-02-16T01:48:22.149Z,1.92
2024-02-16T01:51:25.849Z,2.70
2024-02-16T01:54:28.169Z,2.45
2024-02-16T01:57:30.661Z,1.73
2024-02-16T02:00:32.532Z,3.05
2024-02-16T02:03:36.300Z,2.88
2024-02-16T02:06:39.877Z,1.98
2024-02-16T02:09:42.378Z,1.88
2024-02-16T02:12:45.452Z,2.22
2024-02-16T02:15:47.121Z,2.50
2024-02-16T02:18:48.940Z,2.47
2024-02-16T02:21:51.627Z,2.80
2024-02-16T02:24:53.282Z,3.08
2024-02-16T02:27:54.945Z,2.75
2024-02-16T02:30:56.907Z,3.13
2024-02-16T02:33:58.701Z,2.97
2024-02-16T02:37:00.838Z,2.90
2024-02-16T02:40:02.549Z,3.20
2024-02-16T02:43:04.993Z,3.30
2024-02-16T02:46:06.580Z,3.45
2024-02-16T02:49:09.657Z,3.25
2024-02-16T02:52:11.710Z,3.40
2024-02-16T02:55:13.278Z,2.78
2024-02-16T02:58:14.920Z,3.17
2024-02-16T03:01:16.748Z,3.47
2024-02-16T03:04:18.527Z,3.45
2024-02-16T03:07:20.174Z,2.90
2024-02-16T03:10:23.424Z,2.70
2024-02-16T03:13:25.126Z,3.17
2024-02-16T03:16:26.791Z,3.53
2024-02-16T03:19:28.752Z,3.70
2024-02-16T03:22:30.377Z,3.85
2024-02-16T03:25:31.999Z,3.47
2024-02-16T03:28:33.982Z,2.72
2024-02-16T03:31:36.875Z,3.25
2024-02-16T03:34:38.819Z,3.22
2024-02-16T03:37:40.938Z,2.22
2024-02-16T03:40:42.512Z,3.25
2024-02-16T03:43:44.144Z,3.28
2024-02-16T03:46:45.750Z,2.78
2024-02-16T03:49:47.484Z,2.22
2024-02-16T03:52:49.505Z,2.70
2024-02-16T03:55:51.480Z,3.70
2024-02-16T03:58:53.763Z,3.42
2024-02-16T04:01:55.387Z,3.38
2024-02-16T04:04:56.988Z,3.47
2024-02-16T04:08:05.939Z,2.75
2024-02-16T04:11:08.313Z,3.53
2024-02-16T04:14:09.981Z,3.17
2024-02-16T04:17:11.664Z,3.22
2024-02-16T04:20:13.355Z,3.28
2024-02-16T04:23:14.984Z,3.53
2024-02-16T04:26:16.639Z,3.95
2024-02-16T04:29:18.318Z,3.17
2024-02-16T04:32:20.005Z,2.53
2024-02-16T04:35:21.668Z,3.55
2024-02-16T04:38:23.236Z,2.85
2024-02-16T04:41:24.888Z,3.15
2024-02-16T04:44:26.498Z,2.80
2024-02-16T04:47:28.481Z,3.17
2024-02-16T04:50:30.136Z,3.70
2024-02-16T04:53:31.763Z,3.65
2024-02-16T04:56:33.428Z,3.65
2024-02-16T04:59:35.154Z,2.97
2024-02-16T05:02:36.891Z,3.50
2024-02-16T05:05:38.621Z,3.00
2024-02-16T05:08:40.243Z,3.10
2024-02-16T05:11:41.894Z,3.13
2024-02-16T05:14:43.556Z,3.15
2024-02-16T05:17:49.980Z,3.03
2024-02-16T05:20:51.867Z,2.85
2024-02-16T05:23:53.571Z,4.07
2024-02-16T05:26:56.923Z,3.88
2024-02-16T05:29:58.643Z,2.72
2024-02-16T05:33:00.704Z,4.10
2024-02-16T05:36:04.858Z,4.40
2024-02-16T05:39:27.297Z,3.47
2024-02-16T05:42:29.716Z,3.33
2024-02-16T05:45:31.553Z,3.90
2024-02-16T05:48:36.220Z,3.38
2024-02-16T05:51:40.554Z,3.53
2024-02-16T05:54:42.255Z,3.17
2024-02-16T05:57:44.021Z,3.42
2024-02-16T06:00:48.365Z,3.15
2024-02-16T06:03:50.187Z,3.33
2024-02-16T06:06:52.405Z,4.05
2024-02-16T06:09:55.576Z,3.50
2024-02-16T06:12:57.539Z,3.67
2024-02-16T06:15:59.208Z,3.25
2024-02-16T06:19:01.363Z,3.72
2024-02-16T06:22:03.556Z,3.70
2024-02-16T06:25:05.339Z,4.45
2024-02-16T06:28:07.279Z,3.75
2024-02-16T06:31:08.967Z,3.50
2024-02-16T06:34:10.880Z,3.10
2024-02-16T06:37:12.818Z,3.60
2024-02-16T06:40:14.532Z,3.30
2024-02-16T06:43:16.177Z,2.38
2024-02-16T06:46:17.808Z,3.75
2024-02-16T06:49:19.386Z,4.10
2024-02-16T06:52:21.066Z,4.75
2024-02-16T06:55:23.011Z,4.68
2024-02-16T06:58:24.651Z,4.07
2024-02-16T07:01:28.705Z,3.35
2024-02-16T07:04:30.865Z,3.28
2024-02-16T07:07:35.545Z,2.67
2024-02-16T07:10:37.253Z,3.97
2024-02-16T07:13:40.332Z,3.83
2024-02-16T07:16:41.934Z,3.88
2024-02-16T07:19:43.569Z,3.80
2024-02-16T07:22:47.799Z,2.72
2024-02-16T07:25:52.280Z,2.65
2024-02-16T07:28:53.943Z,4.32
2024-02-16T07:31:57.071Z,3.30
2024-02-16T07:34:58.708Z,2.70
2024-02-16T07:38:00.340Z,2.20
2024-02-16T07:41:04.529Z,2.63
2024-02-16T07:44:08.150Z,2.58
2024-02-16T07:47:09.772Z,2.42
2024-02-16T07:50:11.359Z,2.30
2024-02-16T07:53:13.150Z,3.22
2024-02-16T07:56:16.192Z,3.72
2024-02-16T07:59:20.059Z,3.10
2024-02-16T08:02:21.700Z,2.75
2024-02-16T08:05:24.529Z,2.25
2024-02-16T08:08:26.265Z,2.22
2024-02-16T08:11:28.863Z,2.25
2024-02-16T08:14:30.666Z,2.53
2024-02-16T08:17:32.321Z,2.17
2024-02-16T08:20:33.931Z,2.17
2024-02-16T08:23:35.603Z,3.08
2024-02-16T08:26:37.147Z,2.78
2024-02-16T08:29:38.835Z,2.60
2024-02-16T08:32:40.768Z,2.47
2024-02-16T08:35:42.553Z,2.15
2024-02-16T08:38:44.227Z,2.22
2024-02-16T08:41:45.931Z,2.72
2024-02-16T08:44:47.638Z,2.80
2024-02-16T08:47:51.705Z,3.45
2024-02-16T08:50:54.705Z,3.70
2024-02-16T08:53:56.783Z,3.53
2024-02-16T08:56:58.602Z,2.85
2024-02-16T09:00:00.372Z,3.33
2024-02-16T09:03:07.363Z,2.83
2024-02-16T09:06:09.252Z,2.35
2024-02-16T09:09:11.717Z,2.78
2024-02-16T09:12:13.803Z,2.53
2024-02-16T09:15:15.577Z,3.25
2024-02-16T09:18:17.327Z,3.28
2024-02-16T09:21:19.275Z,3.45
2024-02-16T09:24:21.447Z,3.63
2024-02-16T09:27:26.980Z,4.25
2024-02-16T09:33:31.134Z,3.80
2024-02-16T09:36:33.545Z,4.82
2024-02-16T09:39:35.818Z,3.67
2024-02-16T09:42:39.532Z,5.13
2024-02-16T09:45:41.364Z,4.32
2024-02-16T09:48:49.463Z,3.75
2024-02-16T09:51:51.585Z,3.53
2024-02-16T09:54:53.505Z,3.88
2024-02-16T09:58:06.207Z,3.25
2024-02-16T10:01:07.908Z,2.90
2024-02-16T10:04:09.658Z,3.13
2024-02-16T10:07:13.453Z,3.95
2024-02-16T10:10:26.509Z,3.90
2024-02-16T10:13:28.118Z,4.63
2024-02-16T10:16:30.965Z,4.80
2024-02-16T10:19:43.458Z,4.53
2024-02-16T10:22:49.190Z,3.10
2024-02-16T10:25:50.927Z,3.23
2024-02-16T10:28:56.298Z,3.60
2024-02-16T10:31:57.949Z,4.60
2024-02-16T10:34:59.869Z,3.40
2024-02-16T10:38:07.618Z,3.47
2024-02-16T10:41:10.786Z,3.40
2024-02-16T10:44:12.663Z,2.88
2024-02-16T10:47:14.507Z,3.17
2024-02-16T10:50:16.802Z,3.35
2024-02-16T10:53:24.431Z,3.80
2024-02-16T10:56:34.348Z,3.50
2024-02-16T10:59:47.284Z,3.58
2024-02-16T11:02:57.514Z,3.28
2024-02-16T11:06:00.092Z,3.10
2024-02-16T11:09:11.479Z,3.70
2024-02-16T11:12:16.405Z,4.10
2024-02-16T11:15:28.500Z,3.70
2024-02-16T11:18:31.545Z,3.13
2024-02-16T11:21:34.188Z,3.35
2024-02-16T11:24:37.082Z,2.92
2024-02-16T11:27:40.841Z,3.42
2024-02-16T11:30:42.974Z,4.70
2024-02-16T11:33:46.525Z,3.05
2024-02-16T11:36:48.427Z,4.18
2024-02-16T11:39:56.897Z,4.20
2024-02-16T11:42:59.992Z,3.88
2024-02-16T11:46:15.383Z,3.67
2024-02-16T11:49:18.270Z,4.55
2024-02-16T11:52:20.622Z,4.65
2024-02-16T11:55:22.435Z,4.75
2024-02-16T11:58:24.970Z,4.80
2024-02-16T12:01:26.804Z,4.20
2024-02-16T12:04:29.821Z,3.65
2024-02-16T12:07:32.061Z,4.00
2024-02-16T12:10:33.808Z,4.22
2024-02-16T12:13:35.924Z,3.78
2024-02-16T12:16:40.633Z,3.38
2024-02-16T12:19:49.334Z,3.80
2024-02-16T12:22:51.069Z,3.72
2024-02-16T12:25:52.720Z,3.45
2024-02-16T12:28:54.305Z,3.65
2024-02-16T12:31:55.953Z,4.10
2024-02-16T12:34:59.323Z,4.03
2024-02-16T12:38:01.465Z,4.68
2024-02-16T12:41:03.197Z,3.78
2024-02-16T12:44:08.171Z,3.97
2024-02-16T12:47:10.079Z,4.28
2024-02-16T12:50:12.943Z,3.15
2024-02-16T12:53:14.750Z,3.42
2024-02-16T12:56:16.779Z,3.83
2024-02-16T12:59:18.543Z,4.95
2024-02-16T13:02:20.268Z,4.15
2024-02-16T13:05:22.743Z,3.95
2024-02-16T13:08:24.413Z,4.60
2024-02-16T13:11:26.318Z,4.22
2024-02-16T13:14:28.444Z,4.40
2024-02-16T13:17:32.138Z,4.03
2024-02-16T13:20:36.625Z,5.22
2024-02-16T13:23:38.345Z,4.60
2024-02-16T13:26:39.996Z,3.78
2024-02-16T13:29:41.584Z,4.20
2024-02-16T13:32:43.204Z,4.05
2024-02-16T13:35:44.821Z,3.92
2024-02-16T13:38:46.446Z,4.97
2024-02-16T13:41:49.634Z,4.00
2024-02-16T13:44:51.237Z,3.80
2024-02-16T13:47:53.052Z,4.10
2024-02-16T13:50:56.342Z,3.75
2024-02-16T13:53:58.534Z,4.80
2024-02-16T13:57:00.184Z,4.80
2024-02-16T14:00:01.858Z,4.20
2024-02-16T14:03:05.578Z,4.68
2024-02-16T14:06:09.272Z,4.68
2024-02-16T14:09:23.658Z,4.65
2024-02-16T14:12:28.984Z,4.20
2024-02-16T14:15:32.533Z,3.60
2024-02-16T14:18:36.006Z,4.15
2024-02-16T14:21:38.015Z,4.40
2024-02-16T14:24:39.921Z,4.50
2024-02-16T14:27:43.020Z,4.05
2024-02-16T14:30:44.814Z,4.28
2024-02-16T14:33:47.189Z,3.55
2024-02-16T14:36:49.007Z,3.88
2024-02-16T14:39:50.687Z,3.97
2024-02-16T14:42:52.270Z,4.40
2024-02-16T14:45:53.952Z,3.85
2024-02-16T14:48:55.873Z,4.35
2024-02-16T14:51:57.689Z,3.55
2024-02-16T14:55:00.742Z,3.65
2024-02-16T14:58:02.560Z,4.47
2024-02-16T15:01:05.377Z,5.30
2024-02-16T15:04:07.296Z,4.63
2024-02-16T15:07:10.922Z,4.95
2024-02-16T15:10:12.724Z,4.80
2024-02-16T15:13:14.463Z,4.78
2024-02-16T15:16:17.123Z,4.38
2024-02-16T15:19:18.802Z,4.70
2024-02-16T15:22:20.452Z,4.68
2024-02-16T15:25:23.121Z,5.00
2024-02-16T15:28:24.813Z,6.60
2024-02-16T15:31:26.399Z,5.25
2024-02-16T15:34:28.234Z,4.68
2024-02-16T15:37:30.000Z,4.55
2024-02-16T15:40:31.576Z,9.13
2024-02-16T15:43:33.150Z,5.50
2024-02-16T15:46:35.482Z,4.57
2024-02-16T15:49:37.113Z,4.13
2024-02-16T15:52:39.708Z,4.47
2024-02-16T15:55:43.492Z,5.65
2024-02-16T15:58:45.361Z,4.85
2024-02-16T16:01:48.193Z,4.32
2024-02-16T16:04:50.569Z,4.30
2024-02-16T16:07:53.223Z,4.03
2024-02-16T16:10:57.228Z,5.35
2024-02-16T16:13:58.989Z,4.90
2024-02-16T16:17:00.598Z,4.07
2024-02-16T16:20:02.940Z,4.50
2024-02-16T16:23:05.078Z,5.25
2024-02-16T16:26:06.710Z,4.78
2024-02-16T16:29:08.321Z,5.05
2024-02-16T16:32:10.032Z,5.15
2024-02-16T16:35:12.463Z,5.57
2024-02-16T16:38:14.238Z,5.38
2024-02-16T16:41:15.821Z,4.97
2024-02-16T16:44:19.931Z,4.80
2024-02-16T16:47:21.641Z,4.70
2024-02-16T16:50:23.388Z,4.10
2024-02-16T16:53:25.056Z,3.97
2024-02-16T16:56:26.917Z,4.25
2024-02-16T16:59:28.509Z,4.50
2024-02-16T17:02:30.123Z,4.00
2024-02-16T17:05:32.292Z,4.57
2024-02-16T17:08:34.006Z,4.40
2024-02-16T17:11:39.498Z,4.22
2024-02-16T17:14:41.735Z,4.82
2024-02-16T17:17:48.182Z,4.28
2024-02-16T17:20:49.914Z,4.90
2024-02-16T17:23:51.612Z,5.05
2024-02-16T17:26:53.145Z,4.80
2024-02-16T17:29:54.763Z,5.25
2024-02-16T17:32:56.478Z,4.38
2024-02-16T17:35:58.123Z,5.13
2024-02-16T17:38:59.796Z,4.53
2024-02-16T17:42:01.562Z,4.95
2024-02-16T17:45:07.670Z,4.80
2024-02-16T17:48:09.821Z,4.43
2024-02-16T17:51:11.677Z,4.93
2024-02-16T17:54:13.346Z,5.35
2024-02-16T17:57:15.006Z,4.97
2024-02-16T18:00:17.357Z,5.00
2024-02-16T18:03:19.469Z,5.28
2024-02-16T18:06:21.177Z,5.10
2024-02-16T18:09:22.796Z,5.18
2024-02-16T18:12:24.734Z,5.60
2024-02-16T18:15:26.441Z,5.00
2024-02-16T18:18:29.358Z,5.43
2024-02-16T18:21:31.337Z,5.15
2024-02-16T18:24:33.042Z,4.60
2024-02-16T18:27:34.688Z,5.18
2024-02-16T18:30:36.385Z,4.75
2024-02-16T18:33:38.258Z,5.40
2024-02-16T18:36:39.954Z,3.95
2024-02-16T18:39:42.142Z,4.40
2024-02-16T18:42:44.093Z,4.63
2024-02-16T18:45:45.819Z,4.35
2024-02-16T18:48:48.057Z,4.30
2024-02-16T18:51:52.824Z,6.38
2024-02-16T18:54:54.532Z,5.55
2024-02-16T18:57:56.105Z,6.45
2024-02-16T19:00:57.771Z,6.05
2024-02-16T19:04:00.878Z,4.32
2024-02-16T19:07:02.616Z,4.72
2024-02-16T19:10:05.519Z,4.68
2024-02-16T19:13:07.168Z,5.30
2024-02-16T19:16:08.729Z,4.40
2024-02-16T19:19:12.472Z,4.57
2024-02-16T19:22:14.149Z,4.75
2024-02-16T19:25:17.852Z,4.63
2024-02-16T19:28:19.595Z,5.20
2024-02-16T19:31:21.486Z,5.10
2024-02-16T19:34:23.200Z,4.95
2024-02-16T19:37:25.055Z,4.40
2024-02-16T19:40:28.584Z,4.75
2024-02-16T19:43:30.363Z,4.38
2024-02-16T19:46:32.041Z,4.30
2024-02-16T19:49:33.926Z,4.82
2024-02-16T19:52:35.922Z,5.18
2024-02-16T19:55:37.596Z,4.70
2024-02-16T19:58:39.425Z,5.07
2024-02-16T20:01:42.260Z,4.82
2024-02-16T20:04:44.031Z,4.07
2024-02-16T20:07:46.586Z,4.30
2024-02-16T20:10:48.634Z,4.97
2024-02-16T20:13:51.321Z,4.45
2024-02-16T20:16:52.987Z,5.05
2024-02-16T20:19:55.002Z,4.18
2024-02-16T20:22:57.885Z,4.47
2024-02-16T20:25:59.505Z,3.85
2024-02-16T20:29:03.524Z,4.18
2024-02-16T20:32:06.392Z,4.95
2024-02-16T20:35:08.395Z,5.03
2024-02-16T20:38:10.162Z,5.10
2024-02-16T20:41:12.669Z,4.55
2024-02-16T20:44:14.390Z,5.05
2024-02-16T20:47:16.207Z,5.05
2024-02-16T20:50:18.109Z,5.18
2024-02-16T20:53:19.878Z,4.55
2024-02-16T20:56:21.494Z,4.88
2024-02-16T20:59:23.126Z,5.20
2024-02-16T21:02:25.565Z,4.90
2024-02-16T21:05:27.292Z,4.40
2024-02-16T21:08:28.880Z,4.20
2024-02-16T21:11:30.569Z,4.35
2024-02-16T21:14:32.259Z,3.65
2024-02-16T21:17:34.710Z,3.72
2024-02-16T21:20:36.394Z,3.28
2024-02-16T21:23:37.996Z,3.88
2024-02-16T21:26:39.626Z,3.25
2024-02-16T21:29:43.818Z,3.13
2024-02-16T21:32:45.542Z,2.88
2024-02-16T21:35:50.873Z,3.17
2024-02-16T21:38:55.724Z,3.22
2024-02-16T21:41:57.369Z,2.13
2024-02-16T21:44:59.038Z,3.20
2024-02-16T21:48:01.440Z,3.83
2024-02-16T21:51:03.649Z,3.55
2024-02-16T21:54:07.527Z,3.30
2024-02-16T21:57:09.371Z,2.65
2024-02-16T22:00:11.557Z,2.58
2024-02-16T22:03:13.197Z,2.45
2024-02-16T22:06:20.064Z,2.90
2024-02-16T22:09:21.911Z,2.20
2024-02-16T22:12:23.669Z,2.63
2024-02-16T22:15:25.330Z,3.58
2024-02-16T22:18:27.129Z,1.98
2024-02-16T22:21:33.883Z,2.13
2024-02-16T22:24:41.246Z,2.70
2024-02-16T22:27:43.820Z,1.58
2024-02-16T22:30:45.548Z,2.53
2024-02-16T22:33:47.339Z,1.52
2024-02-16T22:36:49.120Z,2.55
2024-02-16T22:39:52.169Z,1.88
2024-02-16T22:42:53.925Z,1.90
2024-02-16T22:45:56.773Z,2.50
2024-02-16T22:48:58.790Z,2.00
2024-02-16T22:52:01.257Z,1.23
2024-02-16T22:55:05.662Z,2.35
2024-02-16T22:58:09.967Z,1.67
2024-02-16T23:01:13.009Z,2.47
2024-02-16T23:04:14.840Z,2.10
2024-02-16T23:07:18.749Z,1.83
2024-02-16T23:10:22.599Z,1.97
2024-02-16T23:13:24.179Z,2.05
2024-02-16T23:16:29.741Z,2.65
2024-02-16T23:19:31.532Z,0.93
2024-02-16T23:22:33.275Z,2.60
2024-02-16T23:25:35.322Z,1.27
2024-02-16T23:28:37.014Z,1.45
2024-02-16T23:31:38.656Z,1.83
2024-02-16T23:34:40.482Z,2.33
2024-02-16T23:37:42.563Z,2.13
2024-02-16T23:40:44.298Z,2.58
2024-02-16T23:43:45.942Z,1.20
2024-02-16T23:46:47.609Z,3.03
2024-02-16T23:49:49.265Z,3.22
2024-02-16T23:52:50.920Z,2.03
2024-02-16T23:55:55.004Z,2.33
2024-02-16T23:58:56.619Z,2.50
